Date,TemperatureHighF,TemperatureAvgF,TemperatureLowF,DewpointHighF,DewpointAvgF,DewpointLowF,HumidityHigh,HumidityAvg,HumidityLow,PressureMaxIn,PressureMinIn,WindSpeedMaxMPH,WindSpeedAvgMPH,GustSpeedMaxMPH,PrecipitationSumIn
2013-1-1,28.8,27.9,27.5,28.0,27.6,27.3,99,98,95,29.98,29.94,13,7,0,0.00
2013-1-2,25.2,19.1,15.1,16.7,13.8,11.8,96,80,60,30.17,30.05,16,5,0,0.00
2013-1-3,29.1,21.6,14.0,20.4,16.8,13.1,96,82,66,30.18,30.09,13,6,0,0.00
2013-1-4,26.2,23.1,21.4,21.7,20.7,19.4,95,91,82,30.16,30.09,22,13,0,0.04
2013-1-6,35.6,32.0,29.8,30.8,27.7,-99.9,99,86,74,30.12,29.86,11,-3,0,0.01
2013-1-7,29.8,25.8,19.4,29.6,25.3,19.2,99,98,89,30.31,30.02,13,5,0,0.00
2013-1-8,37.2,30.4,23.7,27.8,20.0,-99.9,93,68,55,30.30,30.05,8,-9,0,0.00
2013-1-9,46.6,39.5,28.6,43.2,35.2,24.5,99,85,65,30.34,29.95,20,7,0,0.01
2013-1-10,46.8,37.8,29.3,30.5,27.3,21.4,95,67,37,30.25,30.03,11,3,0,0.00
2013-1-11,47.3,38.6,33.6,47.0,34.1,27.1,99,84,69,30.23,29.70,10,4,0,0.30
2013-1-12,60.8,54.8,51.6,54.2,52.7,51.1,99,93,77,30.05,29.76,9,4,0,0.00
2013-1-13,63.1,58.8,50.4,53.7,52.2,49.4,99,80,67,29.99,29.65,15,5,0,0.00
2013-1-14,56.5,39.7,30.4,54.8,38.0,29.2,99,94,77,30.21,29.67,11,5,0,0.17
2013-1-15,33.4,29.7,29.3,31.2,25.7,-99.9,99,94,90,30.15,29.77,6,-33,0,0.01
2013-1-16,33.6,31.7,29.1,33.4,31.1,26.9,99,98,82,29.93,29.56,10,3,0,0.00
2013-1-17,30.7,28.8,26.8,28.3,26.9,25.3,99,92,83,30.06,29.93,9,5,0,0.00
2013-1-18,29.5,23.1,15.1,25.3,13.5,6.3,94,68,38,30.28,29.99,16,7,0,0.01
2013-1-19,48.7,39.3,29.5,19.7,14.5,6.9,42,36,29,30.10,29.69,14,6,0,0.13
2013-1-20,42.3,34.0,19.9,29.4,18.7,8.8,73,54,33,29.89,29.62,22,11,0,0.15
2013-1-21,29.1,20.1,9.0,16.8,12.8,4.1,95,74,52,29.88,29.66,19,7,0,0.00
2013-1-22,10.2,4.7,0.9,1.9,-0.7,-4.6,90,78,59,30.02,29.77,20,8,0,0.00
2013-1-23,12.2,6.8,0.3,8.1,0.6,-3.1,92,76,55,30.05,29.83,11,5,0,0.00
2013-1-24,15.4,10.1,3.4,9.3,4.2,-4.0,95,77,55,30.28,29.81,12,4,0,0.00
2013-1-25,18.1,10.6,2.7,17.6,7.0,-3.0,98,85,66,30.26,29.78,7,2,0,0.00
2013-1-26,22.6,17.5,15.8,19.6,16.5,14.6,97,96,88,30.00,29.82,10,6,0,0.00
2013-1-27,30.6,25.4,11.8,19.4,17.8,11.1,97,73,57,30.29,30.14,4,2,0,0.00
2013-1-28,47.8,40.0,26.2,47.5,38.7,19.7,99,95,76,30.15,29.86,17,5,0,0.58
2013-1-29,63.7,53.7,47.8,54.0,50.5,47.5,99,90,69,29.95,29.77,10,4,0,0.06
2013-1-30,65.1,54.1,46.6,56.6,51.5,46.3,99,91,74,29.76,29.12,14,5,0,0.92
2013-1-31,45.7,24.1,17.1,45.4,21.0,10.4,99,88,72,29.65,29.10,21,11,0,0.13
2013-2-1,18.9,10.8,5.5,18.0,7.8,1.9,99,88,75,30.11,29.60,17,8,0,0.00
2013-2-2,24.6,14.2,1.8,21.2,10.7,0.5,99,87,54,30.10,29.77,11,4,0,0.00
2013-2-3,27.3,20.4,12.9,22.8,18.8,11.1,99,94,77,29.79,29.61,17,6,0,0.00
2013-2-4,29.3,20.6,12.6,29.1,17.9,10.6,99,90,64,29.86,29.70,14,5,0,0.00
2013-2-5,33.8,30.1,27.7,33.5,29.6,27.5,99,98,91,29.80,29.67,15,5,0,0.00
2013-2-6,27.7,24.7,18.5,27.5,23.8,18.3,99,96,89,30.20,29.79,10,4,0,0.00
2013-2-7,35.2,25.6,15.4,29.4,22.9,15.2,99,90,75,30.20,29.94,9,3,0,0.01
2013-2-8,37.8,28.3,19.9,37.3,27.8,19.7,99,98,91,29.94,29.66,19,7,0,0.22
2013-2-9,27.9,21.0,17.2,19.8,17.7,15.5,99,88,64,30.24,29.91,14,6,0,0.00
2013-2-10,41.5,28.4,11.3,25.9,16.9,10.2,99,65,40,30.23,29.93,7,3,0,0.06
2013-2-11,56.3,43.7,32.2,47.9,34.9,22.9,99,75,36,29.94,29.62,18,7,0,0.14
2013-2-12,42.8,35.2,30.4,28.6,24.5,21.1,78,65,48,29.88,29.73,21,8,0,0.08
2013-2-13,40.1,32.8,27.3,31.8,25.6,20.8,99,76,50,29.82,29.53,5,2,0,0.00
2013-2-14,37.9,31.5,24.1,31.1,26.7,22.6,99,83,64,29.86,29.69,9,5,0,0.14
2013-2-15,37.8,33.1,28.9,32.4,29.3,24.8,99,87,60,29.92,29.82,13,5,0,0.00
2013-2-16,28.0,21.9,15.1,26.8,17.9,12.5,99,85,63,29.88,29.73,8,4,0,0.00
2013-2-17,17.1,13.6,11.1,15.8,11.0,5.7,98,89,72,30.06,29.72,14,8,0,0.00
2013-2-18,42.8,24.5,5.9,24.6,11.8,3.0,88,61,33,30.16,29.89,9,4,0,0.02
2013-2-19,40.5,33.2,20.3,37.7,28.6,18.4,99,84,57,29.89,29.56,17,7,0,0.14
2013-2-20,19.9,15.5,12.9,18.8,12.7,8.5,97,89,81,30.02,29.72,21,10,0,0.00
2013-2-21,21.0,15.9,12.9,15.6,12.5,8.9,99,86,76,30.20,29.97,18,6,0,0.00
2013-2-22,25.2,22.5,15.6,25.0,20.2,13.7,99,91,78,30.16,29.97,11,4,0,0.00
2013-2-23,49.3,35.7,25.2,41.6,33.7,25.0,99,93,70,29.96,29.72,7,1,0,0.01
2013-2-24,32.4,26.6,21.6,32.2,24.7,18.8,99,92,83,29.99,29.73,13,6,0,0.01
2013-2-25,39.9,28.7,18.5,22.6,20.5,17.8,99,74,46,30.08,29.99,7,3,0,0.00
2013-2-26,31.8,29.5,28.2,31.6,25.0,19.7,99,84,69,30.01,29.57,12,5,0,0.01
2013-2-27,37.9,34.6,31.1,35.0,32.7,30.9,99,93,81,29.58,29.51,14,5,0,0.52
2013-2-28,30.4,28.5,27.1,30.2,28.0,26.9,99,98,90,29.64,29.50,13,7,0,0.00
2013-3-1,30.2,25.8,21.6,27.8,25.1,21.1,99,97,84,29.80,29.64,11,6,0,0.00
2013-3-2,25.5,21.1,18.5,21.3,19.6,18.0,99,94,80,29.77,29.71,12,6,0,0.00
2013-3-3,24.8,20.3,17.2,19.6,18.3,16.2,99,92,73,29.81,29.71,16,8,0,0.00
2013-3-4,31.3,22.4,15.6,19.1,16.2,13.5,99,78,59,29.93,29.81,18,8,0,0.00
2013-3-5,45.7,29.9,19.4,28.0,17.7,14.0,99,64,28,29.93,29.58,8,3,0,0.24
2013-3-6,39.0,29.9,26.2,32.7,28.4,26.0,99,94,76,29.97,29.55,8,1,0,0.00
2013-3-7,37.0,30.6,27.7,30.1,27.8,26.4,99,89,67,30.11,29.96,11,4,0,0.01
2013-3-8,31.6,27.2,22.3,27.6,25.5,22.1,99,93,83,30.28,30.09,16,7,0,0.01
2013-3-9,46.0,25.7,19.8,27.8,22.3,19.6,99,89,48,30.27,30.22,3,1,0,0.00
2013-3-10,52.3,48.2,46.2,29.9,29.2,27.9,50,48,42,30.08,30.03,8,4,0,0.00
2013-3-11,52.2,47.6,44.4,46.8,33.4,27.5,99,60,42,30.04,29.74,10,4,0,0.11
2013-3-12,47.3,36.2,30.7,47.0,35.0,26.2,99,96,83,29.89,29.69,14,6,0,0.63
2013-3-13,33.6,27.5,21.4,28.7,24.4,18.2,99,88,64,29.93,29.80,16,8,0,0.01
2013-3-14,32.5,24.6,19.2,19.7,17.2,13.2,94,74,55,30.02,29.93,20,9,0,0.00
2013-3-15,45.1,34.5,24.8,33.6,25.6,17.9,79,70,59,29.98,29.72,12,6,0,0.00
2013-3-16,43.5,39.1,33.4,42.3,38.1,33.1,99,96,76,29.80,29.52,10,3,0,0.01
2013-3-17,35.1,30.2,25.5,32.8,26.5,22.7,99,87,69,30.07,29.80,10,4,0,0.00
2013-3-18,28.0,26.3,24.4,27.8,25.6,23.0,99,97,83,30.06,29.69,14,6,0,0.00
2013-3-19,42.1,34.3,28.0,35.3,24.6,12.1,99,71,31,29.83,29.62,21,9,0,0.36
2013-3-20,35.2,28.0,21.9,27.2,17.5,13.5,99,66,43,29.83,29.66,14,7,0,0.00
2013-3-21,21.7,18.4,14.5,20.3,12.8,7.9,99,79,58,29.73,29.63,13,7,0,0.00
2013-3-22,32.0,23.8,18.3,20.3,17.3,15.2,93,77,60,29.88,29.71,12,7,0,0.00
2013-3-23,41.7,30.0,20.5,23.7,20.8,17.8,89,70,45,29.91,29.83,10,4,0,0.00
2013-3-24,32.0,26.2,21.6,27.5,22.0,19.0,99,85,65,29.87,29.42,8,2,0,0.00
2013-3-25,36.3,29.0,25.7,31.9,28.4,25.5,99,97,84,29.57,29.35,10,5,0,0.00
2013-3-26,37.6,30.9,27.1,31.1,28.5,25.6,99,91,69,29.94,29.58,12,6,0,0.08
2013-3-27,33.6,28.7,27.0,29.7,28.0,26.8,99,97,84,30.00,29.91,12,7,0,0.00
2013-3-28,34.5,29.1,27.9,29.9,28.3,27.7,99,97,83,30.10,30.00,11,7,0,0.03
2013-3-29,45.9,43.6,41.4,29.2,26.3,24.0,57,50,43,30.13,30.08,13,8,0,0.11
2013-3-31,44.1,41.6,37.9,43.8,41.3,37.1,99,99,96,29.82,29.64,10,5,0,0.38
2013-4-1,42.1,36.1,28.8,41.6,30.7,15.3,99,82,49,29.87,29.64,19,7,0,0.03
2013-4-2,36.1,27.7,22.1,17.1,14.9,12.2,78,59,39,30.06,29.86,14,6,0,0.00
2013-4-3,36.3,27.0,21.0,18.0,14.5,9.6,74,59,35,30.26,30.04,14,6,0,0.00
2013-4-4,43.9,33.3,15.1,20.5,12.1,0.9,77,44,27,30.27,29.92,8,3,0,0.00
2013-4-5,52.3,40.6,30.7,29.8,25.4,19.1,81,56,38,30.01,29.83,15,6,0,0.00
2013-4-6,54.1,38.0,21.2,21.5,16.9,10.4,95,50,20,30.18,30.01,6,3,0,0.00
2013-4-7,68.2,53.1,42.3,48.1,32.4,20.2,86,46,37,30.06,29.89,17,6,0,0.00
2013-4-8,70.9,60.2,48.9,48.1,45.3,42.6,88,61,39,30.03,29.92,9,3,0,0.00
2013-4-9,77.7,64.6,57.0,54.1,50.7,45.3,78,62,41,30.10,29.93,10,5,0,0.00
2013-4-10,79.9,70.9,56.1,57.6,54.1,50.0,95,57,41,29.97,29.82,14,7,0,0.01
2013-4-11,77.0,64.6,52.2,56.6,54.2,51.1,99,73,42,29.88,29.65,12,3,0,0.00
2013-4-12,66.6,55.3,41.7,59.5,48.8,34.6,99,81,42,29.75,29.54,17,6,0,0.99
2013-4-13,56.3,45.4,34.9,35.7,32.2,27.6,84,62,36,29.92,29.75,17,7,0,0.00
2013-4-14,63.3,44.6,29.3,37.3,31.4,25.8,91,64,36,30.07,29.91,10,4,0,0.00
2013-4-15,56.8,53.8,48.7,49.9,46.4,39.4,89,76,69,30.15,30.07,10,5,0,0.00
2013-4-16,79.2,63.2,51.8,57.4,53.3,49.5,99,74,43,30.20,30.05,11,5,0,0.28
2013-4-17,69.6,58.7,52.3,59.8,56.1,52.0,99,92,69,30.21,30.10,7,3,0,0.00
2013-4-18,77.9,64.0,55.2,63.0,57.6,54.6,99,82,55,30.16,29.86,10,5,0,0.00
2013-4-19,71.2,56.2,40.1,60.9,52.0,34.4,99,86,67,29.86,29.51,18,6,0,0.33
2013-4-20,47.3,37.6,30.4,34.3,27.2,22.5,96,67,42,30.28,29.75,19,9,0,0.01
2013-4-21,51.8,34.9,23.5,24.0,21.6,19.0,95,63,28,30.47,30.28,6,2,0,0.00
2013-4-22,54.9,43.3,32.7,31.0,24.6,19.0,72,50,26,30.43,30.27,9,4,0,0.00
2013-4-23,64.8,50.6,28.2,40.3,35.9,28.0,99,62,33,30.27,30.01,10,3,0,0.00
2013-4-24,73.8,56.4,37.8,53.9,46.3,33.4,97,72,46,30.04,29.74,16,6,0,0.00
2013-4-25,55.8,43.7,32.0,33.4,29.0,23.9,99,61,31,30.25,30.05,12,6,0,0.00
2013-4-26,60.6,48.6,32.5,36.0,29.6,24.2,97,52,26,30.40,30.26,9,3,0,0.00
2013-4-27,67.8,52.4,32.9,39.6,33.5,25.1,85,51,29,30.35,30.19,7,2,0,0.00
2013-4-28,52.7,48.2,45.9,49.2,44.5,38.9,99,88,65,30.19,29.99,10,4,0,0.46
2013-4-29,58.6,51.1,46.2,54.4,49.9,45.9,99,96,86,30.03,29.94,12,4,0,0.12
2013-4-30,59.7,52.2,47.8,53.9,50.7,47.5,99,95,79,30.21,30.02,11,3,0,0.03
2013-5-1,69.8,56.3,46.6,49.2,40.9,31.1,99,63,25,30.34,30.20,10,4,0,0.00
2013-5-2,69.3,55.8,41.2,42.0,37.1,30.1,89,53,25,30.36,30.25,12,4,0,0.00
2013-5-3,65.5,54.2,45.0,45.7,41.1,33.1,84,62,43,30.30,30.20,8,3,0,0.00
2013-5-4,63.9,50.5,38.7,42.9,39.5,36.1,94,68,43,30.22,30.11,12,4,0,0.00
2013-5-5,65.1,51.5,39.4,40.6,35.6,25.4,88,59,23,30.15,30.04,9,4,0,0.00
2013-5-6,52.9,47.8,41.5,51.9,46.5,38.7,99,95,79,30.08,30.00,10,4,0,0.17
2013-5-7,55.2,53.4,52.2,54.9,53.1,51.9,99,99,99,29.99,29.89,9,4,0,1.52
2013-5-8,67.3,53.9,45.3,53.3,49.6,45.0,99,87,51,29.96,29.87,6,2,0,0.73
2013-5-9,69.8,56.9,49.6,58.5,53.2,49.3,99,88,60,30.01,29.86,9,4,0,0.03
2013-5-10,77.5,62.8,54.1,60.0,55.9,51.9,99,80,49,30.02,29.82,12,4,0,0.17
2013-5-11,60.8,56.4,50.5,59.2,55.2,48.8,99,96,84,29.82,29.74,11,5,0,0.62
2013-5-12,49.6,44.3,38.3,47.9,33.3,26.3,99,68,43,29.96,29.75,16,8,0,0.02
2013-5-13,48.4,39.8,32.0,30.1,26.1,21.7,86,60,39,30.10,29.94,13,6,0,0.00
2013-5-14,57.7,44.8,29.1,42.0,30.6,23.2,86,60,38,30.12,29.93,11,3,0,0.00
2013-5-15,84.0,66.9,47.7,60.8,52.3,36.9,87,61,42,29.94,29.74,17,6,0,0.00
2013-5-16,71.2,63.5,56.8,61.2,58.1,53.4,99,84,56,29.97,29.78,11,5,0,0.38
2013-5-17,81.1,66.1,54.0,59.6,53.6,45.9,99,70,31,30.10,29.96,7,2,0,0.00
2013-5-18,73.0,60.8,49.6,62.5,56.1,48.2,99,85,68,30.15,30.09,6,2,0,0.00
2013-5-19,62.6,58.1,54.5,62.1,57.7,54.2,99,99,96,30.15,30.04,6,3,0,0.01
2013-5-20,82.8,68.1,57.4,71.3,63.7,57.1,99,87,57,30.08,29.97,8,2,0,0.27
2013-5-21,85.8,72.4,61.3,68.9,64.1,61.0,99,78,45,30.00,29.85,8,2,0,0.00
2013-5-22,84.9,71.2,59.9,69.1,62.0,58.1,99,75,50,29.92,29.82,8,4,0,0.15
2013-5-23,77.2,65.3,59.2,63.9,60.2,56.7,99,86,52,29.86,29.75,16,5,0,0.11
2013-5-24,54.3,40.9,36.3,54.0,39.0,32.2,99,93,75,30.17,29.79,13,7,0,0.17
2013-5-25,53.1,39.3,31.1,38.1,33.4,30.9,99,81,48,30.18,30.09,9,5,0,0.00
2013-5-26,62.8,48.8,35.6,38.3,35.0,31.4,86,62,34,30.22,30.14,11,3,0,0.00
2013-5-27,59.9,48.9,37.0,51.5,40.5,34.7,97,75,46,30.25,30.15,4,1,0,0.01
2013-5-28,79.7,61.2,50.0,67.6,56.6,49.1,99,87,54,30.15,30.04,7,2,0,0.01
2013-5-29,81.9,71.8,59.9,64.7,60.9,58.3,95,70,48,30.14,30.07,14,4,0,0.00
2013-5-30,86.4,70.7,61.0,66.8,62.7,59.9,99,78,42,30.23,30.12,6,2,0,0.00
2013-5-31,78.3,67.1,59.9,65.8,61.9,57.5,95,84,63,30.16,30.02,4,2,0,0.00
2013-6-1,84.4,69.1,62.6,66.7,64.0,61.6,99,86,53,30.04,29.97,5,2,0,0.00
2013-6-2,69.8,69.1,68.5,64.7,64.1,63.0,86,84,79,29.86,29.83,6,4,0,0.00
2013-6-3,60.8,56.8,54.7,60.5,55.9,53.9,99,97,94,29.96,29.87,5,3,0,0.03
2013-6-4,69.8,55.8,40.1,49.6,46.8,39.8,99,74,48,30.13,30.03,4,2,0,0.00
2013-6-5,70.2,57.4,45.1,58.3,51.1,44.8,99,81,65,30.15,30.05,7,2,0,0.00
2013-6-12,78.8,74.3,69.3,72.6,70.2,68.4,99,88,75,29.90,29.80,7,3,0,0.00
2013-6-13,70.0,63.2,55.4,69.7,62.8,55.1,99,99,92,29.80,29.54,10,4,0,0.49
2013-6-14,71.2,60.3,52.0,59.3,55.6,51.7,99,86,62,30.03,29.71,8,3,0,0.00
2013-6-15,77.4,62.6,50.5,58.4,52.5,47.9,99,73,43,30.11,30.01,9,2,0,0.00
2013-6-16,72.7,63.9,58.5,67.9,61.7,53.5,99,93,79,30.04,29.92,11,4,0,0.05
2013-6-17,80.8,68.8,61.9,68.1,64.8,61.6,99,89,61,29.99,29.91,9,3,0,0.00
2013-6-18,74.5,64.9,58.6,71.4,64.2,58.3,99,98,89,29.94,29.82,5,0,0,0.19
2013-6-19,73.8,62.6,54.3,64.1,59.1,54.0,99,89,66,30.14,29.91,5,1,0,0.00
2013-6-20,78.4,65.1,52.7,68.0,61.1,52.4,99,88,60,30.23,30.15,5,1,0,0.00
2013-6-21,82.0,67.3,53.2,69.7,62.2,52.9,99,86,54,30.28,30.20,4,1,0,0.00
2013-6-22,85.5,71.3,57.9,70.3,64.9,57.6,99,82,50,30.25,30.12,5,1,0,0.00
2013-6-23,85.1,71.3,61.2,73.2,66.8,60.9,99,87,59,30.20,30.09,6,1,0,0.00
2013-6-24,84.6,73.4,63.5,71.1,67.5,63.2,99,83,59,30.18,30.05,7,2,0,0.00
2013-6-25,86.0,73.2,61.5,72.0,67.9,61.2,99,85,60,30.10,29.92,14,4,0,0.02
2013-6-26,77.0,68.3,61.9,72.3,67.1,61.6,99,96,81,29.97,29.85,7,2,0,0.08
2013-6-27,70.5,65.6,62.4,69.9,65.3,62.1,99,99,98,29.85,29.64,8,2,0,0.69
2013-6-28,75.7,67.1,62.4,71.6,66.1,61.5,99,97,85,29.65,29.51,8,3,0,0.24
2013-7-1,78.8,72.5,66.2,72.8,69.7,65.9,99,91,76,29.96,29.87,6,2,0,0.37
2013-7-2,77.5,69.8,64.4,74.8,68.9,64.1,99,97,87,30.12,29.95,5,2,0,0.04
2013-7-3,83.3,70.1,64.0,74.1,68.2,63.7,99,94,72,30.22,30.11,4,1,0,0.00
2013-7-4,73.0,66.6,64.9,70.2,66.2,64.6,99,99,91,30.25,30.17,4,0,0,0.01
2013-7-5,84.4,72.5,64.8,77.3,69.6,64.5,99,91,69,30.22,30.14,5,1,0,0.04
2013-7-6,88.9,73.9,64.2,76.2,69.5,63.9,99,88,64,30.23,30.08,6,2,0,0.01
2013-7-7,79.3,68.2,64.6,73.2,67.5,64.3,99,98,81,30.14,30.03,7,1,0,0.10
2013-7-8,78.8,68.6,63.1,70.0,65.8,62.8,99,92,73,30.15,30.08,7,3,0,0.00
2013-7-9,78.4,70.3,64.0,75.2,69.3,63.7,99,97,86,30.13,30.02,8,3,0,0.28
2013-7-10,82.2,71.7,64.2,75.9,69.5,63.9,99,93,76,30.06,29.87,10,3,0,0.10
2013-7-11,75.7,67.1,61.3,70.2,65.3,61.0,99,94,80,30.01,29.88,4,2,0,0.03
2013-7-12,72.5,63.5,57.7,67.4,62.5,57.4,99,97,83,30.10,29.97,4,0,0,0.11
2013-7-13,78.4,68.0,61.2,72.5,66.4,60.9,99,95,80,30.29,30.09,4,1,0,0.04
2013-7-14,82.4,69.0,65.8,72.4,67.9,65.5,99,96,72,30.36,30.28,6,1,0,0.02
2013-7-27,70.9,66.0,59.7,69.1,65.4,59.4,99,98,90,30.00,29.92,4,1,0,0.00
2013-7-28,75.0,71.6,60.8,61.3,59.5,57.8,90,66,57,30.01,29.92,9,4,0,0.13
2013-7-29,64.2,58.9,53.4,56.7,55.2,53.1,99,88,74,30.11,30.10,6,3,0,0.00
2013-7-31,70.0,70.0,70.0,64.9,64.9,64.9,84,84,84,30.04,30.04,3,3,0,0.00
2013-8-2,73.9,66.5,61.2,64.1,61.6,60.5,99,85,63,29.99,29.96,8,3,0,0.00
2013-8-3,68.0,64.7,61.5,64.7,62.6,61.2,99,93,87,30.00,29.95,8,4,0,0.00
2013-8-5,70.7,67.4,65.1,53.6,52.5,51.4,64,59,51,30.12,30.04,3,2,0,0.00
2013-8-6,77.0,70.8,63.0,65.2,63.1,60.3,99,78,64,30.04,30.01,4,2,0,0.00
2013-8-7,72.1,64.0,63.0,71.1,63.6,62.7,99,99,95,30.04,30.01,4,2,0,0.00
2013-8-8,77.9,74.8,72.3,75.3,73.7,72.0,99,96,90,30.03,29.96,5,2,0,0.00
2013-8-9,72.5,68.9,67.5,72.2,68.6,67.2,99,99,99,29.98,29.92,8,3,0,0.68
2013-8-10,77.4,67.8,57.6,63.8,61.1,57.3,99,81,63,30.09,30.07,2,1,0,0.00
2013-8-11,77.7,77.7,77.7,69.9,69.9,69.9,77,77,77,30.10,30.10,3,3,0,0.00
2013-8-12,79.3,76.3,71.4,68.7,67.1,65.7,86,73,66,30.06,29.97,4,3,0,0.00
2013-8-13,75.9,66.3,56.5,70.2,64.2,54.5,99,93,79,29.91,29.80,9,4,0,0.00
2013-8-14,63.5,53.0,46.8,55.8,51.1,46.5,99,94,75,30.12,29.91,7,2,0,0.00
2013-8-15,57.7,47.5,43.3,54.4,46.7,43.0,99,97,85,30.20,30.14,2,0,0,0.00
2013-8-16,77.2,69.0,58.3,57.7,56.0,55.1,90,65,48,30.19,30.15,3,1,0,0.00
2013-8-17,69.6,65.7,60.3,60.6,58.5,55.1,96,78,69,30.27,30.22,5,2,0,0.00
2013-8-18,71.1,60.9,54.1,66.7,59.5,53.8,99,95,86,30.26,30.15,5,2,0,0.34
2013-8-19,76.3,71.3,60.4,72.8,69.9,60.1,99,95,88,30.13,30.09,5,3,0,0.04
2013-8-20,81.3,74.9,66.9,65.2,62.6,59.2,90,67,56,30.23,30.16,5,2,0,0.00
2013-8-21,76.6,72.7,57.2,71.2,69.1,56.9,99,89,82,30.22,30.18,2,1,0,0.00
2013-8-22,77.5,70.3,65.1,72.1,68.4,64.8,99,94,79,30.12,30.02,7,3,0,0.07
2013-8-23,78.1,66.7,60.3,67.9,63.4,60.0,99,90,70,30.13,30.03,3,0,0,0.47
2013-8-24,76.1,65.7,55.2,66.0,61.3,54.9,99,87,66,30.31,30.22,3,1,0,0.00
2013-8-25,65.3,59.6,55.4,62.9,58.8,55.1,99,97,92,30.41,30.40,0,0,0,0.00
2013-8-26,79.3,68.9,57.7,68.2,62.7,57.4,99,82,67,30.27,30.15,7,3,0,0.00
2013-8-27,75.7,71.2,68.9,72.1,69.6,68.6,99,95,84,30.02,29.96,6,4,0,0.00
2013-8-28,72.1,70.7,68.9,71.8,70.4,68.6,99,99,99,29.99,29.85,6,3,0,0.07
2013-8-29,82.4,72.9,63.5,72.9,69.2,63.2,99,89,72,30.06,30.01,3,1,0,0.00
2013-8-30,84.7,70.3,59.4,72.9,65.9,59.1,99,87,65,30.04,29.88,4,1,0,0.00
2013-8-31,80.2,71.5,64.8,74.4,68.8,64.5,99,92,74,29.89,29.82,8,2,0,0.00
2013-9-1,78.1,70.2,64.0,73.3,68.2,63.7,99,94,79,29.88,29.80,5,1,0,0.00
2013-9-2,80.1,70.6,64.0,73.1,68.5,63.7,99,94,75,29.85,29.76,8,3,0,0.02
2013-9-3,71.1,62.8,54.3,63.9,59.7,54.0,99,91,68,30.01,29.81,9,3,0,0.00
2013-9-4,74.8,54.4,48.7,57.7,52.3,48.4,99,94,50,30.12,30.01,6,1,0,0.00
2013-9-5,70.9,64.4,57.4,61.9,58.6,56.8,99,83,63,30.13,30.09,9,4,0,0.00
2013-9-6,72.3,62.4,43.0,53.5,48.3,37.1,99,65,30,30.25,30.14,5,2,0,0.00
2013-9-7,52.5,49.4,47.8,52.2,49.1,47.5,99,99,99,30.09,30.09,1,0,0,0.00
2013-9-8,77.4,68.9,58.8,68.4,64.7,58.5,99,87,74,30.06,29.95,6,2,0,0.00
2013-9-9,72.5,62.5,52.9,66.7,60.2,52.6,99,93,79,30.16,30.07,5,1,0,0.00
2013-9-10,83.8,73.1,63.0,76.8,70.7,62.7,99,93,78,30.20,30.10,8,3,0,0.00
2013-9-11,84.4,73.7,68.0,76.9,71.8,67.7,99,94,75,30.20,30.06,5,2,0,0.01
2013-9-12,79.2,68.8,61.3,72.9,67.5,61.0,99,96,79,30.06,29.78,16,3,0,0.19
2013-9-13,62.8,54.6,45.1,60.1,53.4,44.8,99,96,74,29.96,29.78,7,3,0,0.02
2013-9-14,63.9,48.9,42.1,48.8,45.0,41.8,99,88,56,30.15,29.95,7,2,0,0.00
2013-9-15,70.2,54.5,39.9,58.2,49.9,39.6,99,86,59,30.16,30.07,8,2,0,0.00
2013-9-16,64.2,56.2,50.0,58.3,54.4,49.7,99,94,74,30.26,30.03,6,2,0,0.11
2013-9-17,65.3,51.4,44.8,52.1,46.3,39.9,99,85,44,30.37,30.26,7,1,0,0.00
2013-9-18,63.9,51.1,39.6,54.9,47.4,39.1,99,88,70,30.28,30.13,4,1,0,0.00
2013-9-19,69.3,57.4,50.4,64.9,56.4,50.1,99,97,84,30.15,30.09,3,0,0,0.00
2013-9-20,76.6,70.7,57.0,69.1,66.9,56.7,99,88,76,30.05,29.91,4,2,0,0.00
2013-9-21,68.2,62.3,56.5,67.0,61.9,56.2,99,99,96,29.88,29.66,10,3,0,0.34
2013-9-22,53.4,49.8,46.0,53.1,49.5,45.7,99,99,99,29.95,29.81,3,2,0,0.10
2013-9-23,57.2,47.2,38.5,48.8,44.7,38.2,99,92,73,30.08,29.94,5,2,0,0.00
2013-9-24,76.3,50.0,33.1,54.5,44.0,32.8,99,84,37,30.07,29.94,4,1,0,0.00
2013-9-25,66.7,52.3,42.8,53.4,47.6,42.5,99,86,54,29.96,29.88,4,1,0,0.00
2013-9-26,72.3,55.6,42.4,54.6,47.3,41.9,99,79,37,30.07,29.92,4,1,0,0.22
2013-9-27,69.3,54.2,43.2,56.3,49.7,42.9,99,87,57,30.21,30.07,4,1,0,0.00
2013-9-28,61.7,53.4,48.2,55.6,51.5,47.9,99,94,76,30.30,30.17,6,2,0,0.00
2013-9-29,68.2,54.9,45.1,55.1,50.3,44.8,99,86,60,30.17,30.03,8,1,0,0.00
2013-9-30,66.6,56.1,45.1,60.9,54.4,44.8,99,94,80,30.05,29.99,3,1,0,0.00
2013-10-1,69.8,60.3,52.9,63.0,58.2,52.6,99,93,75,30.10,30.02,8,2,0,0.00
2013-10-2,73.6,63.0,55.8,65.6,60.5,55.5,99,92,72,30.12,30.06,9,2,0,0.00
2013-10-3,77.2,65.4,57.4,67.3,62.0,57.1,99,90,67,30.14,30.05,6,1,0,0.00
2013-10-4,78.8,68.1,61.5,68.4,64.9,61.2,99,90,68,30.13,30.05,6,2,0,0.00
2013-10-5,81.3,67.6,62.2,66.2,64.0,61.9,99,90,58,30.12,30.02,5,2,0,0.00
2013-10-6,81.9,74.0,61.9,64.1,60.5,56.7,99,64,46,29.99,29.84,7,3,0,0.00
2013-10-7,65.1,54.4,42.4,62.8,51.8,42.1,99,92,74,30.07,29.72,12,5,0,0.54
2013-10-8,63.1,50.2,40.3,48.4,42.9,39.7,99,79,44,30.27,30.06,5,1,0,0.00
2013-10-9,57.2,49.2,41.0,46.7,43.3,39.1,99,81,63,30.30,30.21,6,2,0,0.00
2013-10-10,59.0,51.0,45.1,53.9,47.6,41.5,99,89,62,30.19,30.06,3,1,0,0.36
2013-10-11,56.7,53.0,49.1,56.4,52.7,48.8,99,99,99,30.04,29.98,4,1,0,0.57
2013-10-12,62.1,58.0,53.2,61.8,57.7,52.9,99,99,99,30.12,30.02,5,2,0,0.27
2013-10-13,59.2,55.0,52.3,58.6,54.7,52.0,99,99,98,30.27,30.23,5,2,0,0.44
2013-10-14,62.8,55.3,51.6,61.6,55.0,51.3,99,99,96,30.29,30.20,5,1,0,0.01
2013-10-15,64.4,56.9,51.4,59.1,54.9,51.1,99,94,83,30.22,30.04,6,1,0,0.00
2013-10-16,67.8,62.3,49.8,61.9,57.7,47.1,99,85,70,29.98,29.87,7,2,0,0.00
2013-10-17,64.4,56.9,45.0,62.2,56.5,44.7,99,99,92,29.89,29.64,14,4,0,0.12
2013-10-18,56.3,46.9,41.4,44.7,41.8,38.4,99,84,54,29.97,29.82,11,5,0,0.01
2013-10-19,55.6,44.4,35.6,49.3,41.7,35.3,99,91,58,29.93,29.71,14,3,0,0.02
2013-10-20,53.2,42.7,36.0,37.8,36.0,33.9,99,79,49,30.02,29.84,9,4,0,0.00
2013-10-21,63.5,49.3,36.9,37.0,34.5,30.8,87,60,35,30.02,29.85,9,2,0,0.00
2013-10-22,52.7,44.3,34.5,45.6,36.8,31.0,99,77,54,29.85,29.77,8,3,0,0.01
2013-10-23,39.4,35.4,32.0,39.1,34.4,30.6,99,96,83,29.81,29.61,7,2,0,0.10
2013-10-24,37.0,32.7,30.6,33.2,31.5,28.7,99,95,75,30.03,29.80,11,5,0,0.06
2013-10-25,38.1,31.8,29.5,33.5,30.7,29.3,99,96,81,30.23,30.03,10,5,0,0.00
2013-10-26,46.9,37.1,28.0,30.0,26.5,20.9,99,70,36,30.18,29.84,13,5,0,0.00
2013-10-27,48.6,40.7,34.2,34.4,31.4,29.3,95,71,50,30.05,29.88,10,4,0,0.00
2013-10-28,57.9,43.1,31.6,39.0,33.9,30.7,99,74,39,30.23,30.04,6,1,0,0.00
2013-10-29,58.1,44.4,32.4,38.3,34.2,30.2,99,70,37,30.30,30.22,9,1,0,0.00
2013-10-30,60.3,51.8,40.8,55.5,49.2,37.0,99,91,82,30.23,30.10,5,1,0,0.02
2013-10-31,64.6,58.8,53.4,58.9,56.5,53.1,99,93,77,30.11,29.58,7,2,0,0.03
2013-11-1,61.7,54.6,46.4,58.7,49.5,42.5,99,84,55,29.66,29.43,20,5,0,0.09
2013-11-2,48.2,44.5,39.0,44.0,41.1,38.3,99,88,80,29.84,29.60,13,5,0,0.00
2013-11-3,46.2,37.6,28.4,39.1,30.9,23.3,99,80,42,30.35,29.84,10,4,0,0.03
2013-11-4,39.7,29.7,21.0,24.6,21.4,18.3,96,73,49,30.47,30.34,7,2,0,0.00
2013-11-5,46.6,37.0,28.2,36.0,26.3,22.1,96,66,42,30.48,30.33,6,2,0,0.00
2013-11-6,67.3,52.0,36.3,51.1,45.4,35.9,99,80,52,30.33,29.93,8,3,0,0.00
2013-11-7,58.8,43.3,32.2,53.2,40.0,25.2,99,89,71,30.02,29.83,17,6,0,0.14
2013-11-8,37.2,32.4,26.6,28.2,25.2,23.1,89,75,60,30.20,29.97,16,5,0,0.00
2013-11-9,53.6,40.3,24.8,28.9,22.6,14.6,97,56,22,30.20,29.92,12,4,0,0.00
2013-11-10,45.9,39.9,32.5,34.0,28.6,23.5,78,64,41,30.16,29.87,21,9,0,0.10
2013-11-11,52.0,39.1,28.9,35.2,24.0,11.8,93,62,21,30.19,29.93,19,5,0,0.02
2013-11-12,39.2,27.0,21.9,38.2,24.0,17.7,99,89,66,30.30,29.93,14,6,0,0.04
2013-11-13,30.2,24.3,19.2,21.7,20.3,18.0,99,85,67,30.36,30.24,12,8,0,0.00
2013-11-14,46.2,35.5,23.9,20.3,15.9,11.4,86,47,25,30.24,30.12,15,6,0,0.00
2013-11-15,51.3,44.0,37.9,40.4,22.1,14.8,93,44,28,30.17,30.08,9,4,0,0.02
2013-11-16,57.7,46.6,37.2,49.2,44.2,36.9,99,92,73,30.19,30.05,8,3,0,0.01
2013-11-17,58.8,52.9,46.0,57.4,51.9,45.7,99,97,85,30.07,29.57,14,4,0,0.11
2013-11-18,51.1,44.8,35.2,48.4,34.6,25.2,99,69,44,29.89,29.65,22,10,0,0.03
2013-11-19,34.3,29.5,23.2,26.6,23.6,21.0,95,78,70,30.26,29.90,15,5,0,0.00
2013-11-20,38.7,28.9,20.5,22.3,17.9,10.8,97,67,34,30.39,30.25,9,3,0,0.00
2013-11-21,47.8,36.0,25.5,37.9,31.3,20.5,99,84,65,30.39,30.23,7,2,0,0.00
2013-11-22,50.7,46.8,35.6,50.4,46.2,35.3,99,98,89,30.22,29.99,14,4,0,0.23
2013-11-23,35.1,26.8,14.5,34.8,24.6,14.3,99,92,70,30.12,29.96,15,8,0,0.01
2013-11-24,18.7,13.5,10.0,14.0,8.7,6.4,98,81,64,30.30,30.12,15,9,0,0.00
2013-11-25,36.1,32.0,27.1,16.4,9.5,1.7,51,39,26,30.29,30.13,9,4,0,0.00
2013-11-26,37.4,33.1,30.7,37.1,31.0,15.2,99,93,44,30.13,29.54,7,3,0,1.22
2013-11-27,33.4,24.7,16.5,33.1,24.3,14.5,99,98,91,29.90,29.50,19,9,0,0.01
2013-11-28,23.5,18.9,14.5,21.5,16.3,12.1,99,90,78,30.31,29.92,18,7,0,0.00
2013-11-29,31.6,24.3,17.8,23.3,20.6,17.6,99,86,69,30.54,30.30,8,3,0,0.00
2013-11-30,28.4,22.3,18.1,24.6,20.8,17.9,99,94,84,30.53,30.22,8,3,0,0.00
2013-12-1,44.4,38.8,30.9,35.3,30.4,23.9,88,72,52,30.08,29.89,8,3,0,0.00
2013-12-2,46.8,39.9,35.1,38.1,34.9,31.9,94,82,70,29.88,29.73,5,2,0,0.00
2013-12-3,51.6,40.7,34.3,41.9,37.5,34.0,99,89,65,29.87,29.75,5,1,0,0.00
2013-12-4,57.7,44.2,35.6,49.4,41.9,35.3,99,92,72,29.95,29.85,6,2,0,0.00
2013-12-5,64.9,55.5,43.0,60.9,54.5,42.7,99,97,83,29.93,29.85,12,3,0,0.60
2013-12-6,46.8,34.2,28.8,46.5,34.0,28.6,99,99,99,30.07,29.86,12,3,0,0.83
2013-12-7,28.4,23.5,18.3,28.2,23.3,18.1,99,99,99,30.40,30.08,6,3,0,0.00
2013-12-8,22.1,18.7,15.6,21.9,18.5,15.4,99,99,99,30.40,30.06,7,2,0,0.00
2013-12-9,37.9,31.5,22.5,37.6,31.2,22.3,99,99,99,30.06,29.91,14,5,0,0.29
2013-12-10,28.2,23.5,18.9,28.0,21.9,15.2,99,94,79,30.07,29.84,19,7,0,0.00
2013-12-11,27.7,21.5,15.8,22.1,15.7,13.0,99,79,55,30.18,30.08,12,7,0,0.00
2013-12-12,19.9,15.3,11.8,19.2,7.8,1.9,99,73,52,30.25,30.07,16,7,0,0.00
2013-12-13,31.1,23.0,15.3,17.8,12.7,6.0,72,64,56,30.16,30.05,13,6,0,0.00
2013-12-14,30.7,29.0,27.1,30.5,25.5,16.0,99,88,54,30.15,29.58,9,4,0,0.00
2013-12-15,35.2,26.7,21.4,34.9,26.5,21.2,99,99,98,29.81,29.50,16,8,0,0.20
2013-12-16,25.7,22.2,18.3,25.5,21.9,18.1,99,99,94,29.98,29.80,14,5,0,0.00
2013-12-17,34.0,30.2,25.0,33.7,30.0,24.8,99,99,99,29.93,29.79,8,4,0,0.01
2013-12-18,25.3,23.2,20.3,24.8,22.4,20.1,99,97,91,30.05,29.86,14,7,0,0.01
2013-12-19,50.2,45.0,26.6,36.0,29.4,19.5,74,54,44,30.03,29.97,20,7,0,0.22
2013-12-20,54.0,49.0,44.2,52.6,38.7,24.8,99,69,42,30.00,29.88,9,4,0,0.01
2013-12-21,64.0,57.6,52.5,58.9,55.6,52.2,99,94,78,29.91,29.75,11,4,0,0.09
2013-12-22,63.7,56.4,53.1,61.6,55.3,52.6,99,96,87,29.92,29.66,10,5,0,0.19
2013-12-23,53.2,38.4,25.5,52.9,37.8,22.7,99,98,89,30.13,29.88,14,6,0,0.05
2013-12-24,25.3,18.9,9.1,23.5,16.4,7.0,99,90,70,30.30,30.07,16,7,0,0.00
2013-12-25,27.0,16.4,5.2,16.8,10.7,4.5,99,79,53,30.32,30.11,8,2,0,0.00
2013-12-26,31.6,27.5,22.6,27.4,21.1,15.3,99,77,59,30.21,30.02,13,5,0,0.00
2013-12-27,37.9,30.0,22.1,20.2,18.3,13.4,81,63,37,30.25,30.19,13,5,0,0.00
2013-12-28,47.1,39.4,33.4,27.6,23.1,19.6,58,52,44,30.20,30.01,14,5,0,0.00
2013-12-29,44.1,39.3,35.6,40.7,34.8,17.9,99,88,35,30.01,29.52,14,4,0,1.21
2013-12-30,35.6,25.3,18.7,35.3,25.1,18.5,99,99,99,30.00,29.74,14,6,0,0.04
2013-12-31,23.7,21.2,18.7,23.2,20.2,17.0,99,96,88,30.12,29.92,21,7,0,0.00
2014-1-1,39.4,29.1,20.3,24.1,21.1,19.0,98,74,44,30.19,29.95,12,3,0,0.00
2014-1-2,34.0,25.8,11.5,26.3,23.2,11.0,99,90,72,29.95,29.50,11,2,0,0.00